sensor_id;sensor_type;location;lat;lon;timestamp;P1;durP1;ratioP1;P2;durP2;ratioP2
13048;SDS011;6591;51.446;5.404;2023-11-22T00:01:04;25.93;;;16.17;;
13048;SDS011;6591;51.446;5.404;2023-11-22T00:03:32;20.03;;;15.30;;
13048;SDS011;6591;51.446;5.404;2023-11-22T00:05:59;23.73;;;16.33;;
13048;SDS011;6591;51.446;5.404;2023-11-22T00:08:27;29.57;;;16.83;;
13048;SDS011;6591;51.446;5.404;2023-11-22T00:10:55;21.60;;;16.27;;
13048;SDS011;6591;51.446;5.404;2023-11-22T00:13:23;20.13;;;15.30;;
13048;SDS011;6591;51.446;5.404;2023-11-22T00:15:53;21.70;;;15.57;;
13048;SDS011;6591;51.446;5.404;2023-11-22T00:18:20;19.67;;;14.70;;
13048;SDS011;6591;51.446;5.404;2023-11-22T00:20:49;20.77;;;14.83;;
13048;SDS011;6591;51.446;5.404;2023-11-22T00:23:16;21.87;;;14.83;;
13048;SDS011;6591;51.446;5.404;2023-11-22T00:25:43;22.17;;;15.50;;
13048;SDS011;6591;51.446;5.404;2023-11-22T00:28:10;18.60;;;14.30;;
13048;SDS011;6591;51.446;5.404;2023-11-22T00:30:38;22.10;;;14.57;;
13048;SDS011;6591;51.446;5.404;2023-11-22T00:33:05;17.07;;;13.40;;
13048;SDS011;6591;51.446;5.404;2023-11-22T00:35:32;20.13;;;15.07;;
13048;SDS011;6591;51.446;5.404;2023-11-22T00:38:00;20.77;;;14.03;;
13048;SDS011;6591;51.446;5.404;2023-11-22T00:40:28;19.07;;;14.63;;
13048;SDS011;6591;51.446;5.404;2023-11-22T00:42:55;19.03;;;13.90;;
13048;SDS011;6591;51.446;5.404;2023-11-22T00:45:22;18.83;;;13.87;;
13048;SDS011;6591;51.446;5.404;2023-11-22T00:47:49;18.37;;;14.30;;
13048;SDS011;6591;51.446;5.404;2023-11-22T00:50:16;16.80;;;13.57;;
13048;SDS011;6591;51.446;5.404;2023-11-22T00:52:46;18.03;;;14.03;;
13048;SDS011;6591;51.446;5.404;2023-11-22T00:58:58;19.27;;;14.97;;
13048;SDS011;6591;51.446;5.404;2023-11-22T01:01:26;19.43;;;14.93;;
13048;SDS011;6591;51.446;5.404;2023-11-22T01:03:54;19.70;;;14.07;;
13048;SDS011;6591;51.446;5.404;2023-11-22T01:06:21;17.97;;;13.10;;
13048;SDS011;6591;51.446;5.404;2023-11-22T01:08:49;18.87;;;13.50;;
13048;SDS011;6591;51.446;5.404;2023-11-22T01:11:17;15.47;;;12.57;;
13048;SDS011;6591;51.446;5.404;2023-11-22T01:13:44;19.80;;;14.03;;
13048;SDS011;6591;51.446;5.404;2023-11-22T01:16:13;18.33;;;14.73;;
13048;SDS011;6591;51.446;5.404;2023-11-22T01:18:40;17.77;;;14.23;;
13048;SDS011;6591;51.446;5.404;2023-11-22T01:21:11;22.60;;;14.20;;
13048;SDS011;6591;51.446;5.404;2023-11-22T01:23:39;18.13;;;13.57;;
13048;SDS011;6591;51.446;5.404;2023-11-22T01:26:06;20.13;;;13.97;;
13048;SDS011;6591;51.446;5.404;2023-11-22T01:28:33;21.07;;;15.03;;
13048;SDS011;6591;51.446;5.404;2023-11-22T01:31:00;18.33;;;14.10;;
13048;SDS011;6591;51.446;5.404;2023-11-22T01:33:30;21.10;;;13.67;;
13048;SDS011;6591;51.446;5.404;2023-11-22T01:35:58;20.57;;;15.50;;
13048;SDS011;6591;51.446;5.404;2023-11-22T01:38:25;19.70;;;14.60;;
13048;SDS011;6591;51.446;5.404;2023-11-22T01:40:52;21.03;;;15.40;;
13048;SDS011;6591;51.446;5.404;2023-11-22T01:43:20;21.27;;;14.30;;
13048;SDS011;6591;51.446;5.404;2023-11-22T01:45:50;25.63;;;16.03;;
13048;SDS011;6591;51.446;5.404;2023-11-22T01:48:19;22.70;;;15.83;;
13048;SDS011;6591;51.446;5.404;2023-11-22T01:50:47;23.37;;;16.40;;
13048;SDS011;6591;51.446;5.404;2023-11-22T01:53:15;24.13;;;15.67;;
13048;SDS011;6591;51.446;5.404;2023-11-22T01:55:44;20.77;;;15.77;;
13048;SDS011;6591;51.446;5.404;2023-11-22T01:58:13;19.40;;;14.03;;
13048;SDS011;6591;51.446;5.404;2023-11-22T02:00:59;19.87;;;14.63;;
13048;SDS011;6591;51.446;5.404;2023-11-22T02:03:28;20.77;;;15.67;;
13048;SDS011;6591;51.446;5.404;2023-11-22T02:05:56;18.43;;;14.80;;
13048;SDS011;6591;51.446;5.404;2023-11-22T02:08:24;19.57;;;14.50;;
13048;SDS011;6591;51.446;5.404;2023-11-22T02:10:58;20.73;;;15.10;;
13048;SDS011;6591;51.446;5.404;2023-11-22T02:13:30;18.40;;;14.20;;
13048;SDS011;6591;51.446;5.404;2023-11-22T02:15:57;19.53;;;14.63;;
13048;SDS011;6591;51.446;5.404;2023-11-22T02:18:28;18.90;;;14.63;;
13048;SDS011;6591;51.446;5.404;2023-11-22T02:20:56;21.10;;;14.20;;
13048;SDS011;6591;51.446;5.404;2023-11-22T02:23:23;17.27;;;12.83;;
13048;SDS011;6591;51.446;5.404;2023-11-22T02:25:50;18.23;;;13.83;;
13048;SDS011;6591;51.446;5.404;2023-11-22T02:28:17;20.23;;;14.57;;
13048;SDS011;6591;51.446;5.404;2023-11-22T02:30:44;19.97;;;14.87;;
13048;SDS011;6591;51.446;5.404;2023-11-22T02:33:11;19.17;;;14.53;;
13048;SDS011;6591;51.446;5.404;2023-11-22T02:35:38;18.70;;;14.47;;
13048;SDS011;6591;51.446;5.404;2023-11-22T02:38:07;18.00;;;13.13;;
13048;SDS011;6591;51.446;5.404;2023-11-22T02:40:34;19.33;;;13.70;;
13048;SDS011;6591;51.446;5.404;2023-11-22T02:43:01;16.87;;;13.60;;
13048;SDS011;6591;51.446;5.404;2023-11-22T02:45:33;16.63;;;13.50;;
13048;SDS011;6591;51.446;5.404;2023-11-22T02:48:01;18.00;;;13.53;;
13048;SDS011;6591;51.446;5.404;2023-11-22T02:50:30;19.03;;;14.53;;
13048;SDS011;6591;51.446;5.404;2023-11-22T02:53:01;17.37;;;13.77;;
13048;SDS011;6591;51.446;5.404;2023-11-22T02:55:29;19.30;;;13.90;;
13048;SDS011;6591;51.446;5.404;2023-11-22T02:57:56;18.83;;;13.97;;
13048;SDS011;6591;51.446;5.404;2023-11-22T03:00:23;19.73;;;14.63;;
13048;SDS011;6591;51.446;5.404;2023-11-22T03:02:51;19.33;;;14.43;;
13048;SDS011;6591;51.446;5.404;2023-11-22T03:05:20;19.33;;;13.03;;
13048;SDS011;6591;51.446;5.404;2023-11-22T03:07:51;17.83;;;13.23;;
13048;SDS011;6591;51.446;5.404;2023-11-22T03:10:18;21.53;;;14.13;;
13048;SDS011;6591;51.446;5.404;2023-11-22T03:12:45;17.77;;;13.47;;
13048;SDS011;6591;51.446;5.404;2023-11-22T03:15:12;16.77;;;13.43;;
13048;SDS011;6591;51.446;5.404;2023-11-22T03:17:39;18.83;;;13.70;;
13048;SDS011;6591;51.446;5.404;2023-11-22T03:20:08;18.83;;;13.17;;
13048;SDS011;6591;51.446;5.404;2023-11-22T03:22:37;18.33;;;12.93;;
13048;SDS011;6591;51.446;5.404;2023-11-22T03:25:05;18.10;;;12.87;;
13048;SDS011;6591;51.446;5.404;2023-11-22T03:27:37;15.70;;;12.13;;
13048;SDS011;6591;51.446;5.404;2023-11-22T03:30:04;16.93;;;12.33;;
13048;SDS011;6591;51.446;5.404;2023-11-22T03:32:38;18.53;;;12.47;;
13048;SDS011;6591;51.446;5.404;2023-11-22T03:35:06;19.53;;;12.83;;
13048;SDS011;6591;51.446;5.404;2023-11-22T03:37:36;15.30;;;12.27;;
13048;SDS011;6591;51.446;5.404;2023-11-22T03:40:03;14.70;;;11.53;;
13048;SDS011;6591;51.446;5.404;2023-11-22T03:42:31;16.70;;;12.23;;
13048;SDS011;6591;51.446;5.404;2023-11-22T03:44:58;15.97;;;11.93;;
13048;SDS011;6591;51.446;5.404;2023-11-22T03:47:26;17.67;;;12.33;;
13048;SDS011;6591;51.446;5.404;2023-11-22T03:49:53;16.13;;;12.37;;
13048;SDS011;6591;51.446;5.404;2023-11-22T03:52:20;14.97;;;11.80;;
13048;SDS011;6591;51.446;5.404;2023-11-22T03:54:47;19.47;;;12.30;;
13048;SDS011;6591;51.446;5.404;2023-11-22T03:57:14;17.93;;;12.57;;
13048;SDS011;6591;51.446;5.404;2023-11-22T03:59:41;16.80;;;11.83;;
13048;SDS011;6591;51.446;5.404;2023-11-22T04:02:09;15.67;;;11.70;;
13048;SDS011;6591;51.446;5.404;2023-11-22T04:04:37;15.57;;;11.60;;
13048;SDS011;6591;51.446;5.404;2023-11-22T04:07:06;17.07;;;11.87;;
13048;SDS011;6591;51.446;5.404;2023-11-22T04:09:34;15.07;;;11.33;;
13048;SDS011;6591;51.446;5.404;2023-11-22T04:12:01;15.17;;;11.20;;
13048;SDS011;6591;51.446;5.404;2023-11-22T04:14:30;14.80;;;11.03;;
13048;SDS011;6591;51.446;5.404;2023-11-22T04:16:57;14.93;;;11.03;;
13048;SDS011;6591;51.446;5.404;2023-11-22T04:19:25;14.33;;;10.97;;
13048;SDS011;6591;51.446;5.404;2023-11-22T04:21:52;14.57;;;10.97;;
13048;SDS011;6591;51.446;5.404;2023-11-22T04:24:20;14.37;;;10.20;;
13048;SDS011;6591;51.446;5.404;2023-11-22T04:26:48;13.70;;;10.63;;
13048;SDS011;6591;51.446;5.404;2023-11-22T04:29:15;14.77;;;10.57;;
13048;SDS011;6591;51.446;5.404;2023-11-22T04:31:43;14.83;;;10.77;;
13048;SDS011;6591;51.446;5.404;2023-11-22T04:34:10;14.07;;;10.60;;
13048;SDS011;6591;51.446;5.404;2023-11-22T04:36:37;15.20;;;10.57;;
13048;SDS011;6591;51.446;5.404;2023-11-22T04:39:05;16.27;;;11.07;;
13048;SDS011;6591;51.446;5.404;2023-11-22T04:41:34;15.27;;;11.03;;
13048;SDS011;6591;51.446;5.404;2023-11-22T04:44:01;15.10;;;11.00;;
13048;SDS011;6591;51.446;5.404;2023-11-22T04:46:29;17.97;;;12.17;;
13048;SDS011;6591;51.446;5.404;2023-11-22T04:48:56;17.60;;;11.63;;
13048;SDS011;6591;51.446;5.404;2023-11-22T04:51:24;17.13;;;12.00;;
13048;SDS011;6591;51.446;5.404;2023-11-22T04:53:51;17.07;;;12.13;;
13048;SDS011;6591;51.446;5.404;2023-11-22T04:56:18;17.37;;;11.27;;
13048;SDS011;6591;51.446;5.404;2023-11-22T04:58:45;17.83;;;11.53;;
13048;SDS011;6591;51.446;5.404;2023-11-22T05:01:12;13.33;;;10.53;;
13048;SDS011;6591;51.446;5.404;2023-11-22T05:03:43;13.47;;;10.57;;
13048;SDS011;6591;51.446;5.404;2023-11-22T05:06:10;11.93;;;9.77;;
13048;SDS011;6591;51.446;5.404;2023-11-22T05:08:38;11.67;;;8.67;;
13048;SDS011;6591;51.446;5.404;2023-11-22T05:11:05;11.50;;;8.93;;
13048;SDS011;6591;51.446;5.404;2023-11-22T05:13:34;11.23;;;8.87;;
13048;SDS011;6591;51.446;5.404;2023-11-22T05:16:01;11.63;;;9.10;;
13048;SDS011;6591;51.446;5.404;2023-11-22T05:18:28;10.97;;;8.80;;
13048;SDS011;6591;51.446;5.404;2023-11-22T05:20:55;13.10;;;9.10;;
13048;SDS011;6591;51.446;5.404;2023-11-22T05:23:23;12.17;;;9.13;;
13048;SDS011;6591;51.446;5.404;2023-11-22T05:25:50;11.73;;;8.73;;
13048;SDS011;6591;51.446;5.404;2023-11-22T05:28:18;11.67;;;8.73;;
13048;SDS011;6591;51.446;5.404;2023-11-22T05:30:45;12.40;;;9.03;;
13048;SDS011;6591;51.446;5.404;2023-11-22T05:33:12;12.80;;;9.57;;
13048;SDS011;6591;51.446;5.404;2023-11-22T05:35:39;11.10;;;8.20;;
13048;SDS011;6591;51.446;5.404;2023-11-22T05:38:07;11.17;;;8.70;;
13048;SDS011;6591;51.446;5.404;2023-11-22T05:40:35;13.30;;;9.37;;
13048;SDS011;6591;51.446;5.404;2023-11-22T05:43:02;12.07;;;9.03;;
13048;SDS011;6591;51.446;5.404;2023-11-22T05:45:29;13.33;;;8.90;;
13048;SDS011;6591;51.446;5.404;2023-11-22T05:47:56;12.57;;;9.23;;
13048;SDS011;6591;51.446;5.404;2023-11-22T05:50:23;13.33;;;10.17;;
13048;SDS011;6591;51.446;5.404;2023-11-22T05:52:51;14.03;;;10.87;;
13048;SDS011;6591;51.446;5.404;2023-11-22T05:55:18;17.23;;;11.50;;
13048;SDS011;6591;51.446;5.404;2023-11-22T05:57:45;19.03;;;12.90;;
13048;SDS011;6591;51.446;5.404;2023-11-22T06:00:12;18.50;;;13.33;;
13048;SDS011;6591;51.446;5.404;2023-11-22T06:02:40;20.17;;;14.37;;
13048;SDS011;6591;51.446;5.404;2023-11-22T06:05:08;17.77;;;12.70;;
13048;SDS011;6591;51.446;5.404;2023-11-22T06:07:36;20.63;;;13.77;;
13048;SDS011;6591;51.446;5.404;2023-11-22T06:10:03;17.40;;;12.53;;
13048;SDS011;6591;51.446;5.404;2023-11-22T06:12:30;19.10;;;12.80;;
13048;SDS011;6591;51.446;5.404;2023-11-22T06:14:57;20.67;;;13.67;;
13048;SDS011;6591;51.446;5.404;2023-11-22T06:17:24;69.27;;;16.80;;
13048;SDS011;6591;51.446;5.404;2023-11-22T06:19:51;20.67;;;14.47;;
13048;SDS011;6591;51.446;5.404;2023-11-22T06:22:18;19.73;;;14.07;;
13048;SDS011;6591;51.446;5.404;2023-11-22T06:24:46;25.77;;;15.07;;
13048;SDS011;6591;51.446;5.404;2023-11-22T06:27:15;28.43;;;15.77;;
13048;SDS011;6591;51.446;5.404;2023-11-22T06:29:42;22.37;;;14.57;;
13048;SDS011;6591;51.446;5.404;2023-11-22T06:32:13;24.07;;;15.63;;
13048;SDS011;6591;51.446;5.404;2023-11-22T06:34:40;26.33;;;16.80;;
13048;SDS011;6591;51.446;5.404;2023-11-22T06:37:08;22.57;;;15.60;;
13048;SDS011;6591;51.446;5.404;2023-11-22T06:39:35;25.40;;;14.00;;
13048;SDS011;6591;51.446;5.404;2023-11-22T06:42:03;29.33;;;15.63;;
13048;SDS011;6591;51.446;5.404;2023-11-22T06:44:31;52.97;;;18.80;;
13048;SDS011;6591;51.446;5.404;2023-11-22T06:46:58;39.63;;;17.40;;
13048;SDS011;6591;51.446;5.404;2023-11-22T06:49:26;31.43;;;16.43;;
13048;SDS011;6591;51.446;5.404;2023-11-22T06:51:53;66.83;;;18.33;;
13048;SDS011;6591;51.446;5.404;2023-11-22T06:54:20;37.37;;;15.63;;
13048;SDS011;6591;51.446;5.404;2023-11-22T06:56:47;110.67;;;20.10;;
13048;SDS011;6591;51.446;5.404;2023-11-22T06:59:14;78.50;;;19.27;;
13048;SDS011;6591;51.446;5.404;2023-11-22T07:01:41;60.40;;;15.97;;
13048;SDS011;6591;51.446;5.404;2023-11-22T07:04:09;39.80;;;16.13;;
13048;SDS011;6591;51.446;5.404;2023-11-22T07:06:36;46.53;;;16.90;;
13048;SDS011;6591;51.446;5.404;2023-11-22T07:09:04;32.33;;;14.67;;
13048;SDS011;6591;51.446;5.404;2023-11-22T07:11:32;28.17;;;14.93;;
13048;SDS011;6591;51.446;5.404;2023-11-22T07:14:00;27.93;;;13.47;;
13048;SDS011;6591;51.446;5.404;2023-11-22T07:16:27;21.80;;;12.43;;
13048;SDS011;6591;51.446;5.404;2023-11-22T07:18:54;28.23;;;13.70;;
13048;SDS011;6591;51.446;5.404;2023-11-22T07:21:20;41.10;;;15.07;;
13048;SDS011;6591;51.446;5.404;2023-11-22T07:23:48;32.23;;;14.70;;
13048;SDS011;6591;51.446;5.404;2023-11-22T07:26:18;23.17;;;12.77;;
13048;SDS011;6591;51.446;5.404;2023-11-22T07:28:46;21.10;;;12.80;;
13048;SDS011;6591;51.446;5.404;2023-11-22T07:31:13;33.37;;;13.37;;
13048;SDS011;6591;51.446;5.404;2023-11-22T07:33:40;27.97;;;13.27;;
13048;SDS011;6591;51.446;5.404;2023-11-22T07:36:08;23.47;;;13.30;;
13048;SDS011;6591;51.446;5.404;2023-11-22T07:38:36;85.70;;;18.53;;
13048;SDS011;6591;51.446;5.404;2023-11-22T07:41:04;20.50;;;13.03;;
13048;SDS011;6591;51.446;5.404;2023-11-22T07:43:33;31.97;;;13.40;;
13048;SDS011;6591;51.446;5.404;2023-11-22T07:46:04;44.83;;;13.60;;
13048;SDS011;6591;51.446;5.404;2023-11-22T07:48:39;27.63;;;13.57;;
13048;SDS011;6591;51.446;5.404;2023-11-22T07:51:07;26.50;;;13.80;;
13048;SDS011;6591;51.446;5.404;2023-11-22T07:53:35;40.93;;;15.93;;
13048;SDS011;6591;51.446;5.404;2023-11-22T07:56:02;51.33;;;18.07;;
13048;SDS011;6591;51.446;5.404;2023-11-22T07:58:31;128.93;;;24.10;;
13048;SDS011;6591;51.446;5.404;2023-11-22T08:00:58;25.83;;;13.83;;
13048;SDS011;6591;51.446;5.404;2023-11-22T08:03:26;80.00;;;18.30;;
13048;SDS011;6591;51.446;5.404;2023-11-22T08:05:53;39.47;;;17.00;;
13048;SDS011;6591;51.446;5.404;2023-11-22T08:08:22;53.17;;;17.97;;
13048;SDS011;6591;51.446;5.404;2023-11-22T08:10:50;27.67;;;16.90;;
13048;SDS011;6591;51.446;5.404;2023-11-22T08:13:22;36.80;;;18.37;;
13048;SDS011;6591;51.446;5.404;2023-11-22T08:15:49;43.90;;;18.90;;
13048;SDS011;6591;51.446;5.404;2023-11-22T08:18:17;45.87;;;19.13;;
13048;SDS011;6591;51.446;5.404;2023-11-22T08:20:45;36.00;;;18.50;;
13048;SDS011;6591;51.446;5.404;2023-11-22T08:23:12;51.83;;;18.83;;
13048;SDS011;6591;51.446;5.404;2023-11-22T08:25:41;32.63;;;18.07;;
13048;SDS011;6591;51.446;5.404;2023-11-22T08:28:10;44.10;;;18.23;;
13048;SDS011;6591;51.446;5.404;2023-11-22T08:30:38;128.47;;;25.63;;
13048;SDS011;6591;51.446;5.404;2023-11-22T08:33:08;49.17;;;19.80;;
13048;SDS011;6591;51.446;5.404;2023-11-22T08:35:35;54.27;;;20.97;;
13048;SDS011;6591;51.446;5.404;2023-11-22T08:38:02;40.50;;;20.60;;
13048;SDS011;6591;51.446;5.404;2023-11-22T08:40:31;108.63;;;25.03;;
13048;SDS011;6591;51.446;5.404;2023-11-22T08:42:58;38.50;;;21.67;;
13048;SDS011;6591;51.446;5.404;2023-11-22T08:45:25;38.17;;;21.07;;
13048;SDS011;6591;51.446;5.404;2023-11-22T08:47:55;39.00;;;20.93;;
13048;SDS011;6591;51.446;5.404;2023-11-22T08:50:22;40.13;;;21.83;;
13048;SDS011;6591;51.446;5.404;2023-11-22T08:52:49;38.63;;;20.90;;
13048;SDS011;6591;51.446;5.404;2023-11-22T08:55:19;44.83;;;22.97;;
13048;SDS011;6591;51.446;5.404;2023-11-22T08:57:50;43.50;;;21.87;;
13048;SDS011;6591;51.446;5.404;2023-11-22T09:00:18;44.93;;;23.60;;
13048;SDS011;6591;51.446;5.404;2023-11-22T09:02:49;40.80;;;22.90;;
13048;SDS011;6591;51.446;5.404;2023-11-22T09:05:16;36.97;;;22.30;;
13048;SDS011;6591;51.446;5.404;2023-11-22T09:07:45;42.77;;;21.80;;
13048;SDS011;6591;51.446;5.404;2023-11-22T09:10:13;41.97;;;23.03;;
13048;SDS011;6591;51.446;5.404;2023-11-22T09:12:41;41.07;;;23.20;;
13048;SDS011;6591;51.446;5.404;2023-11-22T09:15:11;39.77;;;21.03;;
13048;SDS011;6591;51.446;5.404;2023-11-22T09:17:42;37.80;;;20.60;;
13048;SDS011;6591;51.446;5.404;2023-11-22T09:20:10;36.47;;;20.40;;
13048;SDS011;6591;51.446;5.404;2023-11-22T09:22:41;39.23;;;21.13;;
13048;SDS011;6591;51.446;5.404;2023-11-22T09:25:33;40.13;;;22.47;;
13048;SDS011;6591;51.446;5.404;2023-11-22T09:28:01;36.37;;;20.40;;
13048;SDS011;6591;51.446;5.404;2023-11-22T09:30:30;34.23;;;19.90;;
13048;SDS011;6591;51.446;5.404;2023-11-22T09:33:07;44.13;;;22.27;;
13048;SDS011;6591;51.446;5.404;2023-11-22T09:35:37;44.50;;;22.93;;
13048;SDS011;6591;51.446;5.404;2023-11-22T09:38:06;43.10;;;24.07;;
13048;SDS011;6591;51.446;5.404;2023-11-22T09:40:43;38.57;;;20.67;;
13048;SDS011;6591;51.446;5.404;2023-11-22T09:43:12;38.97;;;21.03;;
13048;SDS011;6591;51.446;5.404;2023-11-22T09:45:49;40.23;;;23.03;;
13048;SDS011;6591;51.446;5.404;2023-11-22T09:48:22;44.03;;;23.97;;
13048;SDS011;6591;51.446;5.404;2023-11-22T09:53:30;44.07;;;24.67;;
13048;SDS011;6591;51.446;5.404;2023-11-22T09:56:01;45.57;;;25.13;;
13048;SDS011;6591;51.446;5.404;2023-11-22T09:58:30;43.23;;;23.97;;
13048;SDS011;6591;51.446;5.404;2023-11-22T10:00:59;43.50;;;25.53;;
13048;SDS011;6591;51.446;5.404;2023-11-22T10:03:27;42.70;;;23.57;;
13048;SDS011;6591;51.446;5.404;2023-11-22T10:05:58;49.17;;;26.93;;
13048;SDS011;6591;51.446;5.404;2023-11-22T10:08:26;44.83;;;24.80;;
13048;SDS011;6591;51.446;5.404;2023-11-22T10:10:53;45.90;;;25.27;;
13048;SDS011;6591;51.446;5.404;2023-11-22T10:13:21;50.80;;;27.07;;
13048;SDS011;6591;51.446;5.404;2023-11-22T10:15:52;46.50;;;26.13;;
13048;SDS011;6591;51.446;5.404;2023-11-22T10:18:20;54.47;;;29.70;;
13048;SDS011;6591;51.446;5.404;2023-11-22T10:20:48;48.30;;;27.70;;
13048;SDS011;6591;51.446;5.404;2023-11-22T10:23:17;49.93;;;28.13;;
13048;SDS011;6591;51.446;5.404;2023-11-22T10:25:46;52.00;;;29.07;;
13048;SDS011;6591;51.446;5.404;2023-11-22T10:28:16;49.47;;;27.33;;
13048;SDS011;6591;51.446;5.404;2023-11-22T10:30:49;50.17;;;27.50;;
13048;SDS011;6591;51.446;5.404;2023-11-22T10:33:18;48.57;;;27.67;;
13048;SDS011;6591;51.446;5.404;2023-11-22T10:35:55;46.23;;;26.57;;
13048;SDS011;6591;51.446;5.404;2023-11-22T10:38:23;45.90;;;25.03;;
13048;SDS011;6591;51.446;5.404;2023-11-22T10:40:50;42.00;;;24.20;;
13048;SDS011;6591;51.446;5.404;2023-11-22T10:43:21;44.73;;;25.63;;
13048;SDS011;6591;51.446;5.404;2023-11-22T10:45:52;42.83;;;24.50;;
13048;SDS011;6591;51.446;5.404;2023-11-22T10:48:22;41.27;;;24.67;;
13048;SDS011;6591;51.446;5.404;2023-11-22T10:50:52;40.80;;;24.70;;
13048;SDS011;6591;51.446;5.404;2023-11-22T10:53:26;41.03;;;25.47;;
13048;SDS011;6591;51.446;5.404;2023-11-22T10:56:07;38.97;;;24.40;;
13048;SDS011;6591;51.446;5.404;2023-11-22T10:58:45;38.03;;;23.87;;
13048;SDS011;6591;51.446;5.404;2023-11-22T11:01:16;34.50;;;22.83;;
13048;SDS011;6591;51.446;5.404;2023-11-22T11:06:33;31.87;;;21.23;;
13048;SDS011;6591;51.446;5.404;2023-11-22T11:09:05;33.77;;;21.20;;
13048;SDS011;6591;51.446;5.404;2023-11-22T11:11:35;34.27;;;22.07;;
13048;SDS011;6591;51.446;5.404;2023-11-22T11:14:06;33.73;;;21.20;;
13048;SDS011;6591;51.446;5.404;2023-11-22T11:16:38;33.93;;;22.03;;
13048;SDS011;6591;51.446;5.404;2023-11-22T11:19:14;29.67;;;19.53;;
13048;SDS011;6591;51.446;5.404;2023-11-22T11:21:44;31.33;;;20.90;;
13048;SDS011;6591;51.446;5.404;2023-11-22T11:24:14;29.93;;;18.87;;
13048;SDS011;6591;51.446;5.404;2023-11-22T11:26:41;33.73;;;20.37;;
13048;SDS011;6591;51.446;5.404;2023-11-22T11:29:32;31.30;;;19.80;;
13048;SDS011;6591;51.446;5.404;2023-11-22T11:32:03;30.83;;;20.07;;
13048;SDS011;6591;51.446;5.404;2023-11-22T11:34:31;31.73;;;19.53;;
13048;SDS011;6591;51.446;5.404;2023-11-22T11:37:01;30.73;;;19.53;;
13048;SDS011;6591;51.446;5.404;2023-11-22T11:39:30;27.23;;;18.27;;
13048;SDS011;6591;51.446;5.404;2023-11-22T11:42:12;28.27;;;18.17;;
13048;SDS011;6591;51.446;5.404;2023-11-22T11:47:32;29.10;;;18.33;;
13048;SDS011;6591;51.446;5.404;2023-11-22T11:50:01;26.90;;;18.13;;
13048;SDS011;6591;51.446;5.404;2023-11-22T11:52:29;23.60;;;16.77;;
13048;SDS011;6591;51.446;5.404;2023-11-22T11:54:57;28.70;;;17.83;;
13048;SDS011;6591;51.446;5.404;2023-11-22T11:57:26;25.97;;;17.63;;
13048;SDS011;6591;51.446;5.404;2023-11-22T11:59:58;26.43;;;17.63;;
13048;SDS011;6591;51.446;5.404;2023-11-22T12:02:36;29.13;;;17.83;;
13048;SDS011;6591;51.446;5.404;2023-11-22T12:05:04;27.33;;;18.23;;
13048;SDS011;6591;51.446;5.404;2023-11-22T12:07:35;25.67;;;18.17;;
13048;SDS011;6591;51.446;5.404;2023-11-22T12:10:04;26.93;;;18.07;;
13048;SDS011;6591;51.446;5.404;2023-11-22T12:12:34;27.93;;;18.70;;
13048;SDS011;6591;51.446;5.404;2023-11-22T12:15:02;29.40;;;19.63;;
13048;SDS011;6591;51.446;5.404;2023-11-22T12:17:29;31.57;;;20.37;;
13048;SDS011;6591;51.446;5.404;2023-11-22T12:20:13;30.50;;;19.27;;
13048;SDS011;6591;51.446;5.404;2023-11-22T12:22:45;30.87;;;19.37;;
13048;SDS011;6591;51.446;5.404;2023-11-22T12:25:14;27.67;;;18.40;;
13048;SDS011;6591;51.446;5.404;2023-11-22T12:27:42;31.53;;;19.03;;
13048;SDS011;6591;51.446;5.404;2023-11-22T12:30:36;29.60;;;19.03;;
13048;SDS011;6591;51.446;5.404;2023-11-22T12:33:05;30.83;;;20.43;;
13048;SDS011;6591;51.446;5.404;2023-11-22T12:35:35;26.50;;;17.73;;
13048;SDS011;6591;51.446;5.404;2023-11-22T12:38:04;26.27;;;18.53;;
13048;SDS011;6591;51.446;5.404;2023-11-22T12:40:33;25.97;;;17.97;;
13048;SDS011;6591;51.446;5.404;2023-11-22T12:43:02;27.43;;;18.93;;
13048;SDS011;6591;51.446;5.404;2023-11-22T12:45:30;29.80;;;19.57;;
13048;SDS011;6591;51.446;5.404;2023-11-22T12:48:04;28.50;;;18.60;;
13048;SDS011;6591;51.446;5.404;2023-11-22T12:50:52;26.20;;;18.10;;
13048;SDS011;6591;51.446;5.404;2023-11-22T12:53:20;26.10;;;17.93;;
13048;SDS011;6591;51.446;5.404;2023-11-22T12:55:48;27.57;;;18.87;;
13048;SDS011;6591;51.446;5.404;2023-11-22T12:58:18;27.63;;;18.57;;
13048;SDS011;6591;51.446;5.404;2023-11-22T13:00:48;29.07;;;18.10;;
13048;SDS011;6591;51.446;5.404;2023-11-22T13:03:27;26.33;;;16.70;;
13048;SDS011;6591;51.446;5.404;2023-11-22T13:05:55;22.13;;;15.57;;
13048;SDS011;6591;51.446;5.404;2023-11-22T13:08:23;27.10;;;18.10;;
13048;SDS011;6591;51.446;5.404;2023-11-22T13:10:55;24.37;;;16.83;;
13048;SDS011;6591;51.446;5.404;2023-11-22T13:13:25;28.10;;;18.60;;
13048;SDS011;6591;51.446;5.404;2023-11-22T13:15:57;28.50;;;19.87;;
13048;SDS011;6591;51.446;5.404;2023-11-22T13:18:24;33.47;;;22.13;;
13048;SDS011;6591;51.446;5.404;2023-11-22T13:20:53;31.57;;;22.63;;
13048;SDS011;6591;51.446;5.404;2023-11-22T13:23:20;36.80;;;24.67;;
13048;SDS011;6591;51.446;5.404;2023-11-22T13:25:47;37.67;;;25.63;;
13048;SDS011;6591;51.446;5.404;2023-11-22T13:28:15;34.17;;;24.70;;
13048;SDS011;6591;51.446;5.404;2023-11-22T13:30:43;38.23;;;24.77;;
13048;SDS011;6591;51.446;5.404;2023-11-22T13:33:10;33.87;;;23.40;;
13048;SDS011;6591;51.446;5.404;2023-11-22T13:35:38;32.00;;;22.10;;
13048;SDS011;6591;51.446;5.404;2023-11-22T13:38:05;33.37;;;21.70;;
13048;SDS011;6591;51.446;5.404;2023-11-22T13:40:37;34.10;;;21.97;;
13048;SDS011;6591;51.446;5.404;2023-11-22T13:43:06;29.37;;;20.77;;
13048;SDS011;6591;51.446;5.404;2023-11-22T13:45:37;35.17;;;21.93;;
13048;SDS011;6591;51.446;5.404;2023-11-22T13:48:07;29.60;;;19.47;;
13048;SDS011;6591;51.446;5.404;2023-11-22T13:50:36;31.67;;;20.77;;
13048;SDS011;6591;51.446;5.404;2023-11-22T13:53:04;30.57;;;19.80;;
13048;SDS011;6591;51.446;5.404;2023-11-22T13:55:31;31.03;;;19.80;;
13048;SDS011;6591;51.446;5.404;2023-11-22T13:57:58;28.93;;;19.53;;
13048;SDS011;6591;51.446;5.404;2023-11-22T14:00:27;30.67;;;19.27;;
13048;SDS011;6591;51.446;5.404;2023-11-22T14:03:01;30.37;;;18.73;;
13048;SDS011;6591;51.446;5.404;2023-11-22T14:05:35;29.00;;;18.80;;
13048;SDS011;6591;51.446;5.404;2023-11-22T14:08:05;30.07;;;18.43;;
13048;SDS011;6591;51.446;5.404;2023-11-22T14:10:33;31.37;;;18.50;;
13048;SDS011;6591;51.446;5.404;2023-11-22T14:13:00;33.00;;;19.70;;
13048;SDS011;6591;51.446;5.404;2023-11-22T14:15:29;31.17;;;19.70;;
13048;SDS011;6591;51.446;5.404;2023-11-22T14:17:57;33.10;;;19.77;;
13048;SDS011;6591;51.446;5.404;2023-11-22T14:20:25;35.07;;;20.07;;
13048;SDS011;6591;51.446;5.404;2023-11-22T14:22:52;35.13;;;20.63;;
13048;SDS011;6591;51.446;5.404;2023-11-22T14:25:19;34.33;;;21.50;;
13048;SDS011;6591;51.446;5.404;2023-11-22T14:27:47;35.07;;;22.03;;
13048;SDS011;6591;51.446;5.404;2023-11-22T14:30:19;35.87;;;22.47;;
13048;SDS011;6591;51.446;5.404;2023-11-22T14:32:48;36.37;;;23.40;;
13048;SDS011;6591;51.446;5.404;2023-11-22T14:35:17;37.93;;;24.23;;
13048;SDS011;6591;51.446;5.404;2023-11-22T14:37:45;37.73;;;24.87;;
13048;SDS011;6591;51.446;5.404;2023-11-22T14:40:13;41.77;;;25.90;;
13048;SDS011;6591;51.446;5.404;2023-11-22T14:42:41;39.53;;;24.60;;
13048;SDS011;6591;51.446;5.404;2023-11-22T14:45:13;39.70;;;24.07;;
13048;SDS011;6591;51.446;5.404;2023-11-22T14:47:40;41.20;;;25.37;;
13048;SDS011;6591;51.446;5.404;2023-11-22T14:50:08;40.43;;;25.53;;
13048;SDS011;6591;51.446;5.404;2023-11-22T14:52:41;42.33;;;25.70;;
13048;SDS011;6591;51.446;5.404;2023-11-22T14:55:10;43.57;;;26.40;;
13048;SDS011;6591;51.446;5.404;2023-11-22T14:57:39;40.10;;;24.77;;